MET'MAP v2.0
soon released !

Expected late october,
this new version will be
more efficient, smarter,
and hosted on a brand new
server x3 powerfull...
...and still free !


Not compatible ?
Try the mobile version !

LOG IN : | Subscribe | Disclaimer | Who is Orbifly ? |
ICAO code :

TAF - LIPK Forli - 06 Dec 2019 12:13 UTC
Data Sources :     NOAA   


- Airport Elevation : 97 ft
- IATA code : FRL
- No reported NOTAMs.


LIPK - Forli

Latest METAR recorded : 2015/08/07 15:50 LIPK 071550Z 05004KT CAVOK 34/18 Q1014
Expired Forecast.

Source NOAA


MET'MAP, your aeronautical weather chart ! - Copyright ORBIFLY December 2007

Programming & Development : Alexandra Zaïnal
Co-Developer : Marc-Olivier Méhu
Technical & hardware support : Manuel Goepfert
Concept & Financing : Baudouin d'Aumeries